sensor_id;sensor_type;location;lat;lon;timestamp;temperature;humidity
17807;DHT22;9027;48.938;9.182;2023-03-01T00:00:48;-0.10;99.90
17807;DHT22;9027;48.938;9.182;2023-03-01T00:02:21;-0.10;99.90
17807;DHT22;9027;48.938;9.182;2023-03-01T00:03:54;-0.20;99.90
17807;DHT22;9027;48.938;9.182;2023-03-01T00:05:26;-0.20;99.90
17807;DHT22;9027;48.938;9.182;2023-03-01T00:06:57;-0.30;99.90
17807;DHT22;9027;48.938;9.182;2023-03-01T00:08:29;-0.60;99.90
17807;DHT22;9027;48.938;9.182;2023-03-01T00:10:01;-0.70;99.90
17807;DHT22;9027;48.938;9.182;2023-03-01T00:11:34;-0.70;99.90
17807;DHT22;9027;48.938;9.182;2023-03-01T00:13:05;-0.70;99.90
17807;DHT22;9027;48.938;9.182;2023-03-01T00:14:36;-0.60;99.90
17807;DHT22;9027;48.938;9.182;2023-03-01T00:16:10;-0.50;99.90
17807;DHT22;9027;48.938;9.182;2023-03-01T00:17:43;-0.40;99.90
17807;DHT22;9027;48.938;9.182;2023-03-01T00:19:17;-0.40;99.90
17807;DHT22;9027;48.938;9.182;2023-03-01T00:20:50;-0.40;99.90
17807;DHT22;9027;48.938;9.182;2023-03-01T00:22:21;-0.30;99.90
17807;DHT22;9027;48.938;9.182;2023-03-01T00:23:54;-0.30;99.90
17807;DHT22;9027;48.938;9.182;2023-03-01T00:25:25;-0.40;99.90
17807;DHT22;9027;48.938;9.182;2023-03-01T00:26:57;-0.30;99.90
17807;DHT22;9027;48.938;9.182;2023-03-01T00:28:29;-0.30;99.90
17807;DHT22;9027;48.938;9.182;2023-03-01T00:29:59;-0.30;99.90
17807;DHT22;9027;48.938;9.182;2023-03-01T00:31:32;-0.30;99.90
17807;DHT22;9027;48.938;9.182;2023-03-01T00:33:06;-0.30;99.90
17807;DHT22;9027;48.938;9.182;2023-03-01T00:34:38;-0.30;99.90
17807;DHT22;9027;48.938;9.182;2023-03-01T00:36:11;-0.50;99.90
17807;DHT22;9027;48.938;9.182;2023-03-01T00:37:42;-0.40;99.90
17807;DHT22;9027;48.938;9.182;2023-03-01T00:39:15;-0.40;99.90
17807;DHT22;9027;48.938;9.182;2023-03-01T00:40:47;-0.40;99.90
17807;DHT22;9027;48.938;9.182;2023-03-01T00:42:19;-0.30;99.90
17807;DHT22;9027;48.938;9.182;2023-03-01T00:43:53;-0.30;99.90
17807;DHT22;9027;48.938;9.182;2023-03-01T00:45:26;-0.50;99.90
17807;DHT22;9027;48.938;9.182;2023-03-01T00:46:57;-0.50;99.90
17807;DHT22;9027;48.938;9.182;2023-03-01T00:48:31;-0.50;99.90
17807;DHT22;9027;48.938;9.182;2023-03-01T00:50:04;-0.40;99.90
17807;DHT22;9027;48.938;9.182;2023-03-01T00:51:36;-0.40;99.90
17807;DHT22;9027;48.938;9.182;2023-03-01T00:53:09;-0.40;99.90
17807;DHT22;9027;48.938;9.182;2023-03-01T00:54:40;-0.40;99.90
17807;DHT22;9027;48.938;9.182;2023-03-01T00:56:14;-0.30;99.90
17807;DHT22;9027;48.938;9.182;2023-03-01T00:57:46;-0.40;99.90
17807;DHT22;9027;48.938;9.182;2023-03-01T00:59:18;-0.40;99.90
17807;DHT22;9027;48.938;9.182;2023-03-01T01:00:50;-0.50;99.90
17807;DHT22;9027;48.938;9.182;2023-03-01T01:02:23;-0.50;99.90
17807;DHT22;9027;48.938;9.182;2023-03-01T01:03:58;-0.50;99.90
17807;DHT22;9027;48.938;9.182;2023-03-01T01:05:30;-0.50;99.90
17807;DHT22;9027;48.938;9.182;2023-03-01T01:07:02;-0.60;99.90
17807;DHT22;9027;48.938;9.182;2023-03-01T01:08:33;-0.70;99.90
17807;DHT22;9027;48.938;9.182;2023-03-01T01:10:06;-0.60;99.90
17807;DHT22;9027;48.938;9.182;2023-03-01T01:11:38;-0.70;99.90
17807;DHT22;9027;48.938;9.182;2023-03-01T01:13:08;-0.80;99.90
17807;DHT22;9027;48.938;9.182;2023-03-01T01:14:40;-0.70;99.90
17807;DHT22;9027;48.938;9.182;2023-03-01T01:16:14;-0.70;99.90
17807;DHT22;9027;48.938;9.182;2023-03-01T01:17:46;-0.70;99.90
17807;DHT22;9027;48.938;9.182;2023-03-01T01:19:19;-0.70;99.90
17807;DHT22;9027;48.938;9.182;2023-03-01T01:20:52;-0.80;99.90
17807;DHT22;9027;48.938;9.182;2023-03-01T01:22:23;-0.90;99.90
17807;DHT22;9027;48.938;9.182;2023-03-01T01:23:56;-1.10;99.90
17807;DHT22;9027;48.938;9.182;2023-03-01T01:25:27;-1.10;99.90
17807;DHT22;9027;48.938;9.182;2023-03-01T01:26:58;-1.20;99.90
17807;DHT22;9027;48.938;9.182;2023-03-01T01:28:30;-1.30;99.90
17807;DHT22;9027;48.938;9.182;2023-03-01T01:30:01;-1.30;99.90
17807;DHT22;9027;48.938;9.182;2023-03-01T01:31:35;-1.20;99.90
17807;DHT22;9027;48.938;9.182;2023-03-01T01:33:07;-1.10;99.90
17807;DHT22;9027;48.938;9.182;2023-03-01T01:34:41;-1.10;99.90
17807;DHT22;9027;48.938;9.182;2023-03-01T01:36:13;-1.30;99.90
17807;DHT22;9027;48.938;9.182;2023-03-01T01:37:44;-1.40;99.90
17807;DHT22;9027;48.938;9.182;2023-03-01T01:39:16;-1.40;99.90
17807;DHT22;9027;48.938;9.182;2023-03-01T01:40:49;-1.40;99.90
17807;DHT22;9027;48.938;9.182;2023-03-01T01:42:20;-1.40;99.90
17807;DHT22;9027;48.938;9.182;2023-03-01T01:44:12;-1.50;99.90
17807;DHT22;9027;48.938;9.182;2023-03-01T01:45:44;-1.50;99.90
17807;DHT22;9027;48.938;9.182;2023-03-01T01:47:16;-1.30;99.90
17807;DHT22;9027;48.938;9.182;2023-03-01T01:48:53;-1.20;99.90
17807;DHT22;9027;48.938;9.182;2023-03-01T01:50:28;-1.30;99.90
17807;DHT22;9027;48.938;9.182;2023-03-01T01:52:11;-1.30;99.90
17807;DHT22;9027;48.938;9.182;2023-03-01T01:53:47;-1.20;99.90
17807;DHT22;9027;48.938;9.182;2023-03-01T01:55:22;-1.10;99.90
17807;DHT22;9027;48.938;9.182;2023-03-01T01:56:58;-1.10;99.90
17807;DHT22;9027;48.938;9.182;2023-03-01T01:58:31;-1.10;99.90
17807;DHT22;9027;48.938;9.182;2023-03-01T02:00:06;-1.20;99.90
17807;DHT22;9027;48.938;9.182;2023-03-01T02:01:44;-1.20;99.90
17807;DHT22;9027;48.938;9.182;2023-03-01T02:03:20;-1.30;99.90
17807;DHT22;9027;48.938;9.182;2023-03-01T02:05:00;-1.30;99.90
17807;DHT22;9027;48.938;9.182;2023-03-01T02:06:38;-1.30;99.90
17807;DHT22;9027;48.938;9.182;2023-03-01T02:08:11;-1.30;99.90
17807;DHT22;9027;48.938;9.182;2023-03-01T02:09:46;-1.30;99.90
17807;DHT22;9027;48.938;9.182;2023-03-01T02:11:19;-1.20;99.90
17807;DHT22;9027;48.938;9.182;2023-03-01T02:12:53;-1.10;99.90
17807;DHT22;9027;48.938;9.182;2023-03-01T02:14:26;-1.10;99.90
17807;DHT22;9027;48.938;9.182;2023-03-01T02:15:57;-1.00;99.90
17807;DHT22;9027;48.938;9.182;2023-03-01T02:17:31;-1.00;99.90
17807;DHT22;9027;48.938;9.182;2023-03-01T02:19:04;-1.00;99.90
17807;DHT22;9027;48.938;9.182;2023-03-01T02:20:44;-0.90;99.90
17807;DHT22;9027;48.938;9.182;2023-03-01T02:22:22;-0.80;99.90
17807;DHT22;9027;48.938;9.182;2023-03-01T02:23:56;-0.90;99.90
17807;DHT22;9027;48.938;9.182;2023-03-01T02:25:37;-1.00;99.90
17807;DHT22;9027;48.938;9.182;2023-03-01T02:27:12;-1.00;99.90
17807;DHT22;9027;48.938;9.182;2023-03-01T02:28:44;-1.10;99.90
17807;DHT22;9027;48.938;9.182;2023-03-01T02:30:17;-1.00;99.90
17807;DHT22;9027;48.938;9.182;2023-03-01T02:31:49;-1.00;99.90
17807;DHT22;9027;48.938;9.182;2023-03-01T02:33:24;-0.90;99.90
17807;DHT22;9027;48.938;9.182;2023-03-01T02:34:56;-0.80;99.90
17807;DHT22;9027;48.938;9.182;2023-03-01T02:36:31;-0.70;99.90
17807;DHT22;9027;48.938;9.182;2023-03-01T02:38:06;-0.70;99.90
17807;DHT22;9027;48.938;9.182;2023-03-01T02:39:41;-0.60;99.90
17807;DHT22;9027;48.938;9.182;2023-03-01T02:41:16;-0.60;99.90
17807;DHT22;9027;48.938;9.182;2023-03-01T02:42:51;-0.60;99.90
17807;DHT22;9027;48.938;9.182;2023-03-01T02:44:25;-0.70;99.90
17807;DHT22;9027;48.938;9.182;2023-03-01T02:45:58;-0.60;99.90
17807;DHT22;9027;48.938;9.182;2023-03-01T02:47:30;-0.60;99.90
17807;DHT22;9027;48.938;9.182;2023-03-01T02:49:20;-0.50;99.90
17807;DHT22;9027;48.938;9.182;2023-03-01T02:51:02;-0.40;99.90
17807;DHT22;9027;48.938;9.182;2023-03-01T02:52:42;-0.40;99.90
17807;DHT22;9027;48.938;9.182;2023-03-01T02:54:22;-0.40;99.90
17807;DHT22;9027;48.938;9.182;2023-03-01T02:55:54;-0.30;99.90
17807;DHT22;9027;48.938;9.182;2023-03-01T02:57:28;-0.30;99.90
17807;DHT22;9027;48.938;9.182;2023-03-01T02:59:00;-0.20;99.90
17807;DHT22;9027;48.938;9.182;2023-03-01T03:00:37;-0.20;99.90
17807;DHT22;9027;48.938;9.182;2023-03-01T03:02:19;-0.40;99.90
17807;DHT22;9027;48.938;9.182;2023-03-01T03:04:08;-0.40;99.90
17807;DHT22;9027;48.938;9.182;2023-03-01T03:05:41;-0.30;99.90
17807;DHT22;9027;48.938;9.182;2023-03-01T03:07:13;-0.20;99.90
17807;DHT22;9027;48.938;9.182;2023-03-01T03:08:45;-0.10;99.90
17807;DHT22;9027;48.938;9.182;2023-03-01T03:10:19;-0.10;99.90
17807;DHT22;9027;48.938;9.182;2023-03-01T03:11:51;-0.10;99.90
17807;DHT22;9027;48.938;9.182;2023-03-01T03:13:23;-0.20;99.90
17807;DHT22;9027;48.938;9.182;2023-03-01T03:14:59;-0.30;99.90
17807;DHT22;9027;48.938;9.182;2023-03-01T03:16:32;-0.30;99.90
17807;DHT22;9027;48.938;9.182;2023-03-01T03:18:05;-0.30;99.90
17807;DHT22;9027;48.938;9.182;2023-03-01T03:19:37;-0.10;99.90
17807;DHT22;9027;48.938;9.182;2023-03-01T03:21:10;-0.10;99.90
17807;DHT22;9027;48.938;9.182;2023-03-01T03:22:42;-0.10;99.90
17807;DHT22;9027;48.938;9.182;2023-03-01T03:24:14;0.00;99.90
17807;DHT22;9027;48.938;9.182;2023-03-01T03:25:48;0.00;99.90
17807;DHT22;9027;48.938;9.182;2023-03-01T03:27:19;0.10;99.90
17807;DHT22;9027;48.938;9.182;2023-03-01T03:28:51;0.10;99.90
17807;DHT22;9027;48.938;9.182;2023-03-01T03:30:24;0.00;99.90
17807;DHT22;9027;48.938;9.182;2023-03-01T03:31:58;0.10;99.90
17807;DHT22;9027;48.938;9.182;2023-03-01T03:33:29;0.00;99.90
17807;DHT22;9027;48.938;9.182;2023-03-01T03:35:00;-0.10;99.90
17807;DHT22;9027;48.938;9.182;2023-03-01T03:36:32;-0.30;99.90
17807;DHT22;9027;48.938;9.182;2023-03-01T03:38:06;-0.30;99.90
17807;DHT22;9027;48.938;9.182;2023-03-01T03:39:39;-0.30;99.90
17807;DHT22;9027;48.938;9.182;2023-03-01T03:41:11;-0.40;99.90
17807;DHT22;9027;48.938;9.182;2023-03-01T03:42:43;-0.30;99.90
17807;DHT22;9027;48.938;9.182;2023-03-01T03:44:14;-0.20;99.90
17807;DHT22;9027;48.938;9.182;2023-03-01T03:45:47;-0.10;99.90
17807;DHT22;9027;48.938;9.182;2023-03-01T03:47:20;-0.10;99.90
17807;DHT22;9027;48.938;9.182;2023-03-01T03:48:51;0.00;99.90
17807;DHT22;9027;48.938;9.182;2023-03-01T03:50:23;0.10;99.90
17807;DHT22;9027;48.938;9.182;2023-03-01T03:51:54;0.00;99.90
17807;DHT22;9027;48.938;9.182;2023-03-01T03:53:27;0.10;99.90
17807;DHT22;9027;48.938;9.182;2023-03-01T03:54:59;0.20;99.90
17807;DHT22;9027;48.938;9.182;2023-03-01T03:56:31;0.20;99.90
17807;DHT22;9027;48.938;9.182;2023-03-01T03:58:03;0.30;99.90
17807;DHT22;9027;48.938;9.182;2023-03-01T03:59:37;0.30;99.90
17807;DHT22;9027;48.938;9.182;2023-03-01T04:01:09;0.30;99.90
17807;DHT22;9027;48.938;9.182;2023-03-01T04:02:42;0.20;99.90
17807;DHT22;9027;48.938;9.182;2023-03-01T04:04:13;0.20;99.90
17807;DHT22;9027;48.938;9.182;2023-03-01T04:05:49;0.20;99.90
17807;DHT22;9027;48.938;9.182;2023-03-01T04:07:21;0.30;99.90
17807;DHT22;9027;48.938;9.182;2023-03-01T04:08:53;0.40;99.90
17807;DHT22;9027;48.938;9.182;2023-03-01T04:10:33;0.50;99.90
17807;DHT22;9027;48.938;9.182;2023-03-01T04:12:04;0.60;99.90
17807;DHT22;9027;48.938;9.182;2023-03-01T04:13:36;0.60;99.90
17807;DHT22;9027;48.938;9.182;2023-03-01T04:15:09;0.60;99.90
17807;DHT22;9027;48.938;9.182;2023-03-01T04:16:43;0.70;99.90
17807;DHT22;9027;48.938;9.182;2023-03-01T04:18:18;0.70;99.90
17807;DHT22;9027;48.938;9.182;2023-03-01T04:19:49;0.70;99.90
17807;DHT22;9027;48.938;9.182;2023-03-01T04:21:22;0.80;99.90
17807;DHT22;9027;48.938;9.182;2023-03-01T04:22:58;0.80;99.90
17807;DHT22;9027;48.938;9.182;2023-03-01T04:24:29;0.90;99.90
17807;DHT22;9027;48.938;9.182;2023-03-01T04:26:01;0.80;99.90
17807;DHT22;9027;48.938;9.182;2023-03-01T04:27:32;0.90;99.90
17807;DHT22;9027;48.938;9.182;2023-03-01T04:29:04;0.90;99.90
17807;DHT22;9027;48.938;9.182;2023-03-01T04:30:37;0.90;99.90
17807;DHT22;9027;48.938;9.182;2023-03-01T04:32:08;0.90;99.90
17807;DHT22;9027;48.938;9.182;2023-03-01T04:33:42;0.90;99.90
17807;DHT22;9027;48.938;9.182;2023-03-01T04:35:14;0.90;99.90
17807;DHT22;9027;48.938;9.182;2023-03-01T04:36:46;0.80;99.90
17807;DHT22;9027;48.938;9.182;2023-03-01T04:38:19;0.80;99.90
17807;DHT22;9027;48.938;9.182;2023-03-01T04:39:51;0.80;99.90
17807;DHT22;9027;48.938;9.182;2023-03-01T04:41:24;0.70;99.90
17807;DHT22;9027;48.938;9.182;2023-03-01T04:42:56;0.70;99.90
17807;DHT22;9027;48.938;9.182;2023-03-01T04:44:27;0.60;99.90
17807;DHT22;9027;48.938;9.182;2023-03-01T04:46:02;0.40;99.90
17807;DHT22;9027;48.938;9.182;2023-03-01T04:47:35;0.50;99.90
17807;DHT22;9027;48.938;9.182;2023-03-01T04:49:10;0.60;99.90
17807;DHT22;9027;48.938;9.182;2023-03-01T04:50:41;0.50;99.90
17807;DHT22;9027;48.938;9.182;2023-03-01T04:52:13;0.50;99.90
17807;DHT22;9027;48.938;9.182;2023-03-01T04:53:45;0.60;99.90
17807;DHT22;9027;48.938;9.182;2023-03-01T04:55:18;0.50;99.90
17807;DHT22;9027;48.938;9.182;2023-03-01T04:56:49;0.60;99.90
17807;DHT22;9027;48.938;9.182;2023-03-01T04:58:21;0.60;99.90
17807;DHT22;9027;48.938;9.182;2023-03-01T04:59:52;0.70;99.90
17807;DHT22;9027;48.938;9.182;2023-03-01T05:01:24;0.80;99.90
17807;DHT22;9027;48.938;9.182;2023-03-01T05:02:59;0.80;99.90
17807;DHT22;9027;48.938;9.182;2023-03-01T05:04:32;0.90;99.90
17807;DHT22;9027;48.938;9.182;2023-03-01T05:06:03;0.90;99.90
17807;DHT22;9027;48.938;9.182;2023-03-01T05:07:35;1.00;99.90
17807;DHT22;9027;48.938;9.182;2023-03-01T05:09:07;1.00;99.90
17807;DHT22;9027;48.938;9.182;2023-03-01T05:10:39;1.00;99.90
17807;DHT22;9027;48.938;9.182;2023-03-01T05:12:11;1.00;99.90
17807;DHT22;9027;48.938;9.182;2023-03-01T05:13:43;1.00;99.90
17807;DHT22;9027;48.938;9.182;2023-03-01T05:15:16;1.10;99.90
17807;DHT22;9027;48.938;9.182;2023-03-01T05:16:47;1.10;99.90
17807;DHT22;9027;48.938;9.182;2023-03-01T05:18:19;1.10;99.90
17807;DHT22;9027;48.938;9.182;2023-03-01T05:19:52;1.10;99.90
17807;DHT22;9027;48.938;9.182;2023-03-01T05:21:26;1.10;99.90
17807;DHT22;9027;48.938;9.182;2023-03-01T05:22:59;1.10;99.90
17807;DHT22;9027;48.938;9.182;2023-03-01T05:24:31;1.10;99.90
17807;DHT22;9027;48.938;9.182;2023-03-01T05:26:05;1.10;99.90
17807;DHT22;9027;48.938;9.182;2023-03-01T05:27:37;1.10;99.90
17807;DHT22;9027;48.938;9.182;2023-03-01T05:29:08;1.10;99.90
17807;DHT22;9027;48.938;9.182;2023-03-01T05:30:41;1.10;99.90
17807;DHT22;9027;48.938;9.182;2023-03-01T05:32:12;1.20;99.90
17807;DHT22;9027;48.938;9.182;2023-03-01T05:33:46;1.10;99.90
17807;DHT22;9027;48.938;9.182;2023-03-01T05:35:19;1.00;99.90
17807;DHT22;9027;48.938;9.182;2023-03-01T05:36:51;1.10;99.90
17807;DHT22;9027;48.938;9.182;2023-03-01T05:38:23;1.10;99.90
17807;DHT22;9027;48.938;9.182;2023-03-01T05:39:55;1.10;99.90
17807;DHT22;9027;48.938;9.182;2023-03-01T05:41:26;1.10;99.90
17807;DHT22;9027;48.938;9.182;2023-03-01T05:42:58;1.10;99.90
17807;DHT22;9027;48.938;9.182;2023-03-01T05:44:30;1.10;99.90
17807;DHT22;9027;48.938;9.182;2023-03-01T05:46:03;1.10;99.90
17807;DHT22;9027;48.938;9.182;2023-03-01T05:47:34;1.10;99.90
17807;DHT22;9027;48.938;9.182;2023-03-01T05:49:06;1.10;99.90
17807;DHT22;9027;48.938;9.182;2023-03-01T05:50:41;1.20;99.90
17807;DHT22;9027;48.938;9.182;2023-03-01T05:52:13;1.10;99.90
17807;DHT22;9027;48.938;9.182;2023-03-01T05:53:44;1.30;99.90
17807;DHT22;9027;48.938;9.182;2023-03-01T05:55:17;1.30;99.90
17807;DHT22;9027;48.938;9.182;2023-03-01T05:56:49;1.40;99.90
17807;DHT22;9027;48.938;9.182;2023-03-01T05:58:21;1.30;99.90
17807;DHT22;9027;48.938;9.182;2023-03-01T05:59:53;1.40;99.90
17807;DHT22;9027;48.938;9.182;2023-03-01T06:01:23;1.40;99.90
17807;DHT22;9027;48.938;9.182;2023-03-01T06:02:56;1.40;99.90
17807;DHT22;9027;48.938;9.182;2023-03-01T06:04:28;1.40;99.90
17807;DHT22;9027;48.938;9.182;2023-03-01T06:06:01;1.40;99.90
17807;DHT22;9027;48.938;9.182;2023-03-01T06:07:33;1.40;99.90
17807;DHT22;9027;48.938;9.182;2023-03-01T06:09:06;1.40;99.90
17807;DHT22;9027;48.938;9.182;2023-03-01T06:10:40;1.40;99.90
17807;DHT22;9027;48.938;9.182;2023-03-01T06:12:12;1.40;99.90
17807;DHT22;9027;48.938;9.182;2023-03-01T06:13:44;1.40;99.90
17807;DHT22;9027;48.938;9.182;2023-03-01T06:15:17;1.40;99.90
17807;DHT22;9027;48.938;9.182;2023-03-01T06:16:48;1.50;99.90
17807;DHT22;9027;48.938;9.182;2023-03-01T06:18:20;1.40;99.90
17807;DHT22;9027;48.938;9.182;2023-03-01T06:19:51;1.30;99.90
17807;DHT22;9027;48.938;9.182;2023-03-01T06:21:25;1.30;99.90
17807;DHT22;9027;48.938;9.182;2023-03-01T06:22:57;1.30;99.90
17807;DHT22;9027;48.938;9.182;2023-03-01T06:24:30;1.20;99.90
17807;DHT22;9027;48.938;9.182;2023-03-01T06:26:06;1.30;99.90
17807;DHT22;9027;48.938;9.182;2023-03-01T06:27:38;1.20;99.90
17807;DHT22;9027;48.938;9.182;2023-03-01T06:29:10;1.10;99.90
17807;DHT22;9027;48.938;9.182;2023-03-01T06:30:42;1.00;99.90
17807;DHT22;9027;48.938;9.182;2023-03-01T06:32:14;1.00;99.90
17807;DHT22;9027;48.938;9.182;2023-03-01T06:33:46;1.00;99.90
17807;DHT22;9027;48.938;9.182;2023-03-01T06:35:18;1.00;99.90
17807;DHT22;9027;48.938;9.182;2023-03-01T06:36:51;1.00;99.90
17807;DHT22;9027;48.938;9.182;2023-03-01T06:38:23;1.00;99.90
17807;DHT22;9027;48.938;9.182;2023-03-01T06:39:55;1.20;99.90
17807;DHT22;9027;48.938;9.182;2023-03-01T06:41:27;1.30;99.90
17807;DHT22;9027;48.938;9.182;2023-03-01T06:42:59;1.40;99.90
17807;DHT22;9027;48.938;9.182;2023-03-01T06:44:31;1.50;99.90
17807;DHT22;9027;48.938;9.182;2023-03-01T06:46:06;1.60;99.90
17807;DHT22;9027;48.938;9.182;2023-03-01T06:47:38;1.60;99.90
17807;DHT22;9027;48.938;9.182;2023-03-01T06:49:10;1.70;99.90
17807;DHT22;9027;48.938;9.182;2023-03-01T06:50:42;1.70;99.90
17807;DHT22;9027;48.938;9.182;2023-03-01T06:52:15;1.90;99.90
17807;DHT22;9027;48.938;9.182;2023-03-01T06:53:47;2.00;99.90
17807;DHT22;9027;48.938;9.182;2023-03-01T06:55:19;2.20;99.90
17807;DHT22;9027;48.938;9.182;2023-03-01T06:56:53;2.50;99.90
17807;DHT22;9027;48.938;9.182;2023-03-01T06:58:25;2.90;99.90
17807;DHT22;9027;48.938;9.182;2023-03-01T06:59:57;3.40;99.90
17807;DHT22;9027;48.938;9.182;2023-03-01T07:01:29;3.70;99.90
17807;DHT22;9027;48.938;9.182;2023-03-01T07:03:01;4.10;99.90
17807;DHT22;9027;48.938;9.182;2023-03-01T07:04:33;4.50;99.90
17807;DHT22;9027;48.938;9.182;2023-03-01T07:06:05;5.10;99.90
17807;DHT22;9027;48.938;9.182;2023-03-01T07:07:39;5.80;99.90
17807;DHT22;9027;48.938;9.182;2023-03-01T07:09:11;6.30;99.90
17807;DHT22;9027;48.938;9.182;2023-03-01T07:10:42;6.70;99.90
17807;DHT22;9027;48.938;9.182;2023-03-01T07:12:15;7.10;99.90
17807;DHT22;9027;48.938;9.182;2023-03-01T07:13:47;7.50;99.90
17807;DHT22;9027;48.938;9.182;2023-03-01T07:15:18;7.90;99.90
17807;DHT22;9027;48.938;9.182;2023-03-01T07:16:50;8.30;99.90
17807;DHT22;9027;48.938;9.182;2023-03-01T07:18:22;8.60;99.90
17807;DHT22;9027;48.938;9.182;2023-03-01T07:19:54;8.80;99.90
17807;DHT22;9027;48.938;9.182;2023-03-01T07:21:26;9.20;99.90
17807;DHT22;9027;48.938;9.182;2023-03-01T07:22:59;9.60;99.90
17807;DHT22;9027;48.938;9.182;2023-03-01T07:24:31;9.90;99.90
17807;DHT22;9027;48.938;9.182;2023-03-01T07:26:03;10.20;99.90
17807;DHT22;9027;48.938;9.182;2023-03-01T07:27:36;10.30;99.90
17807;DHT22;9027;48.938;9.182;2023-03-01T07:29:09;10.40;99.80
17807;DHT22;9027;48.938;9.182;2023-03-01T07:30:42;10.70;98.60
17807;DHT22;9027;48.938;9.182;2023-03-01T07:32:13;11.10;98.00
17807;DHT22;9027;48.938;9.182;2023-03-01T07:33:45;10.90;97.10
17807;DHT22;9027;48.938;9.182;2023-03-01T07:35:17;11.00;97.10
17807;DHT22;9027;48.938;9.182;2023-03-01T07:36:49;11.30;95.70
17807;DHT22;9027;48.938;9.182;2023-03-01T07:38:22;10.90;96.00
17807;DHT22;9027;48.938;9.182;2023-03-01T07:39:54;11.10;95.60
17807;DHT22;9027;48.938;9.182;2023-03-01T07:41:26;11.10;95.10
17807;DHT22;9027;48.938;9.182;2023-03-01T07:42:59;11.10;95.50
17807;DHT22;9027;48.938;9.182;2023-03-01T07:44:31;11.00;95.10
17807;DHT22;9027;48.938;9.182;2023-03-01T07:46:04;10.80;95.60
17807;DHT22;9027;48.938;9.182;2023-03-01T07:47:37;11.20;95.10
17807;DHT22;9027;48.938;9.182;2023-03-01T07:49:08;11.60;94.10
17807;DHT22;9027;48.938;9.182;2023-03-01T07:50:40;11.90;93.40
17807;DHT22;9027;48.938;9.182;2023-03-01T07:52:12;12.40;92.80
17807;DHT22;9027;48.938;9.182;2023-03-01T07:53:47;12.60;91.80
17807;DHT22;9027;48.938;9.182;2023-03-01T07:55:19;12.30;91.60
17807;DHT22;9027;48.938;9.182;2023-03-01T07:56:51;12.20;92.00
17807;DHT22;9027;48.938;9.182;2023-03-01T07:58:25;12.30;91.40
17807;DHT22;9027;48.938;9.182;2023-03-01T07:59:57;12.30;91.30
17807;DHT22;9027;48.938;9.182;2023-03-01T08:01:28;12.00;91.20
17807;DHT22;9027;48.938;9.182;2023-03-01T08:03:04;11.90;91.70
17807;DHT22;9027;48.938;9.182;2023-03-01T08:04:36;12.00;91.70
17807;DHT22;9027;48.938;9.182;2023-03-01T08:06:09;11.70;91.30
17807;DHT22;9027;48.938;9.182;2023-03-01T08:07:41;11.80;92.20
17807;DHT22;9027;48.938;9.182;2023-03-01T08:09:14;11.60;90.60
17807;DHT22;9027;48.938;9.182;2023-03-01T08:10:46;11.50;92.00
17807;DHT22;9027;48.938;9.182;2023-03-01T08:12:18;12.10;91.70
17807;DHT22;9027;48.938;9.182;2023-03-01T08:13:50;12.20;90.30
17807;DHT22;9027;48.938;9.182;2023-03-01T08:15:22;12.50;89.60
17807;DHT22;9027;48.938;9.182;2023-03-01T08:16:54;11.80;88.80
17807;DHT22;9027;48.938;9.182;2023-03-01T08:18:26;10.50;91.60
17807;DHT22;9027;48.938;9.182;2023-03-01T08:19:58;10.40;92.40
17807;DHT22;9027;48.938;9.182;2023-03-01T08:21:30;10.70;92.50
17807;DHT22;9027;48.938;9.182;2023-03-01T08:23:02;11.00;92.30
17807;DHT22;9027;48.938;9.182;2023-03-01T08:24:35;11.60;91.40
17807;DHT22;9027;48.938;9.182;2023-03-01T08:26:08;11.90;90.80
17807;DHT22;9027;48.938;9.182;2023-03-01T08:27:41;11.80;90.20
17807;DHT22;9027;48.938;9.182;2023-03-01T08:29:12;11.90;89.90
17807;DHT22;9027;48.938;9.182;2023-03-01T08:30:44;11.60;90.40
17807;DHT22;9027;48.938;9.182;2023-03-01T08:32:16;11.40;90.10
17807;DHT22;9027;48.938;9.182;2023-03-01T08:33:50;10.50;90.50
17807;DHT22;9027;48.938;9.182;2023-03-01T08:35:25;10.40;91.80
17807;DHT22;9027;48.938;9.182;2023-03-01T08:36:57;10.50;92.20
17807;DHT22;9027;48.938;9.182;2023-03-01T08:38:29;10.30;91.80
17807;DHT22;9027;48.938;9.182;2023-03-01T08:40:03;10.40;92.30
17807;DHT22;9027;48.938;9.182;2023-03-01T08:41:37;10.60;92.10
17807;DHT22;9027;48.938;9.182;2023-03-01T08:43:09;10.30;91.90
17807;DHT22;9027;48.938;9.182;2023-03-01T08:44:41;10.30;92.50
17807;DHT22;9027;48.938;9.182;2023-03-01T08:46:13;10.30;91.90
17807;DHT22;9027;48.938;9.182;2023-03-01T08:47:45;10.50;92.30
17807;DHT22;9027;48.938;9.182;2023-03-01T08:49:19;9.20;93.50
17807;DHT22;9027;48.938;9.182;2023-03-01T08:50:51;9.40;93.90
17807;DHT22;9027;48.938;9.182;2023-03-01T08:52:23;9.20;94.40
17807;DHT22;9027;48.938;9.182;2023-03-01T08:53:55;9.10;94.10
17807;DHT22;9027;48.938;9.182;2023-03-01T08:55:28;9.30;94.20
17807;DHT22;9027;48.938;9.182;2023-03-01T08:57:01;9.30;94.20
17807;DHT22;9027;48.938;9.182;2023-03-01T08:58:33;9.20;94.70
17807;DHT22;9027;48.938;9.182;2023-03-01T09:00:06;9.30;93.90
17807;DHT22;9027;48.938;9.182;2023-03-01T09:01:40;9.10;94.10
17807;DHT22;9027;48.938;9.182;2023-03-01T09:03:13;8.80;94.40
17807;DHT22;9027;48.938;9.182;2023-03-01T09:04:45;8.80;95.70
17807;DHT22;9027;48.938;9.182;2023-03-01T09:06:17;8.70;94.70
17807;DHT22;9027;48.938;9.182;2023-03-01T09:07:49;8.60;94.80
17807;DHT22;9027;48.938;9.182;2023-03-01T09:09:21;8.80;95.20
17807;DHT22;9027;48.938;9.182;2023-03-01T09:10:54;8.90;94.60
17807;DHT22;9027;48.938;9.182;2023-03-01T09:12:26;8.80;95.20
17807;DHT22;9027;48.938;9.182;2023-03-01T09:13:58;8.70;95.20
17807;DHT22;9027;48.938;9.182;2023-03-01T09:15:30;8.40;95.70
17807;DHT22;9027;48.938;9.182;2023-03-01T09:17:04;8.20;95.80
17807;DHT22;9027;48.938;9.182;2023-03-01T09:18:35;8.30;95.80
17807;DHT22;9027;48.938;9.182;2023-03-01T09:20:08;8.00;95.80
17807;DHT22;9027;48.938;9.182;2023-03-01T09:21:42;8.00;96.40
17807;DHT22;9027;48.938;9.182;2023-03-01T09:23:22;7.70;97.00
17807;DHT22;9027;48.938;9.182;2023-03-01T09:24:54;7.90;97.30
17807;DHT22;9027;48.938;9.182;2023-03-01T09:26:30;7.80;96.60
17807;DHT22;9027;48.938;9.182;2023-03-01T09:28:01;7.80;97.90
17807;DHT22;9027;48.938;9.182;2023-03-01T09:29:34;8.10;97.10
17807;DHT22;9027;48.938;9.182;2023-03-01T09:31:07;8.10;96.30
17807;DHT22;9027;48.938;9.182;2023-03-01T09:32:38;8.20;97.10
17807;DHT22;9027;48.938;9.182;2023-03-01T09:34:13;8.30;96.80
17807;DHT22;9027;48.938;9.182;2023-03-01T09:35:46;8.50;96.50
17807;DHT22;9027;48.938;9.182;2023-03-01T09:37:18;8.40;96.30
17807;DHT22;9027;48.938;9.182;2023-03-01T09:38:50;8.50;95.90
17807;DHT22;9027;48.938;9.182;2023-03-01T09:40:25;8.70;96.10
17807;DHT22;9027;48.938;9.182;2023-03-01T09:42:03;8.50;96.10
17807;DHT22;9027;48.938;9.182;2023-03-01T09:43:42;8.70;97.00
17807;DHT22;9027;48.938;9.182;2023-03-01T09:45:24;9.10;96.40
17807;DHT22;9027;48.938;9.182;2023-03-01T09:46:58;9.30;95.60
17807;DHT22;9027;48.938;9.182;2023-03-01T09:48:36;9.50;95.40
17807;DHT22;9027;48.938;9.182;2023-03-01T09:50:12;9.50;95.20
17807;DHT22;9027;48.938;9.182;2023-03-01T09:51:54;9.50;94.60
17807;DHT22;9027;48.938;9.182;2023-03-01T09:53:31;9.70;94.80
17807;DHT22;9027;48.938;9.182;2023-03-01T09:55:10;9.50;94.10
17807;DHT22;9027;48.938;9.182;2023-03-01T09:56:46;9.80;94.30
17807;DHT22;9027;48.938;9.182;2023-03-01T09:58:43;9.00;94.50
17807;DHT22;9027;48.938;9.182;2023-03-01T10:00:23;8.10;95.70
17807;DHT22;9027;48.938;9.182;2023-03-01T10:02:02;8.00;96.70
17807;DHT22;9027;48.938;9.182;2023-03-01T10:03:39;7.90;97.10